createdAt,value
2019-01-12T00:00:28.834Z,92.03
2019-01-12T00:01:28.837Z,91.93
2019-01-12T00:02:28.812Z,91.67
2019-01-12T00:03:28.800Z,92.85
2019-01-12T00:04:28.786Z,92.76
2019-01-12T00:05:28.767Z,92.65
2019-01-12T00:06:28.823Z,91.82
2019-01-12T00:07:28.757Z,91.67
2019-01-12T00:08:28.734Z,91.09
2019-01-12T00:09:28.733Z,90.89
2019-01-12T00:10:28.723Z,90.78
2019-01-12T00:11:28.724Z,91.41
2019-01-12T00:12:28.751Z,90.78
2019-01-12T00:13:28.698Z,91.09
2019-01-12T00:14:28.706Z,90.78
2019-01-12T00:15:28.660Z,91.30
2019-01-12T00:16:28.649Z,91.93
2019-01-12T00:17:28.658Z,90.99
2019-01-12T00:18:28.671Z,90.99
2019-01-12T00:19:28.625Z,91.30
2019-01-12T00:20:28.615Z,91.09
2019-01-12T00:21:28.608Z,90.78
2019-01-12T00:22:28.595Z,90.16
2019-01-12T00:23:28.588Z,90.06
2019-01-12T00:24:31.679Z,90.02
2019-01-12T00:25:28.568Z,89.86
2019-01-12T00:26:28.548Z,89.54
2019-01-12T00:27:28.553Z,89.86
2019-01-12T00:28:28.661Z,89.13
2019-01-12T00:29:28.524Z,89.65
2019-01-12T00:30:28.502Z,89.23
2019-01-12T00:31:28.517Z,89.86
2019-01-12T00:32:28.488Z,88.82
2019-01-12T00:33:28.473Z,88.71
2019-01-12T00:34:28.472Z,89.09
2019-01-12T00:35:28.473Z,89.23
2019-01-12T00:36:28.441Z,89.44
2019-01-12T00:37:28.432Z,88.82
2019-01-12T00:38:28.483Z,88.71
2019-01-12T00:39:28.423Z,88.82
2019-01-12T00:40:28.398Z,88.82
2019-01-12T00:41:28.382Z,89.23
2019-01-12T00:42:28.395Z,89.44
2019-01-12T00:43:28.371Z,89.34
2019-01-12T00:44:28.394Z,89.03
2019-01-12T00:45:28.341Z,89.44
2019-01-12T00:46:28.348Z,89.65
2019-01-12T00:47:28.339Z,89.54
2019-01-12T00:48:28.306Z,89.54
2019-01-12T00:49:28.334Z,89.54
2019-01-12T00:50:28.303Z,89.65
2019-01-12T00:51:28.281Z,89.65
2019-01-12T00:52:28.270Z,89.86
2019-01-12T00:53:28.266Z,89.03
2019-01-12T00:54:28.245Z,89.65
2019-01-12T00:55:28.264Z,89.65
2019-01-12T00:56:28.227Z,89.65
2019-01-12T00:57:28.227Z,89.54
2019-01-12T00:58:28.218Z,89.54
2019-01-12T00:59:28.194Z,89.13
2019-01-12T01:00:28.200Z,89.34
2019-01-12T01:01:28.208Z,88.71
2019-01-12T01:02:28.163Z,89.13
2019-01-12T01:03:28.154Z,88.40
2019-01-12T01:04:28.141Z,88.09
2019-01-12T01:05:28.133Z,87.99
2019-01-12T01:06:28.119Z,88.40
2019-01-12T01:07:28.118Z,87.99
2019-01-12T01:08:28.098Z,87.88
2019-01-12T01:09:28.118Z,88.09
2019-01-12T01:10:28.082Z,87.99
2019-01-12T01:11:28.080Z,87.99
2019-01-12T01:12:28.066Z,88.30
2019-01-12T01:13:28.039Z,88.51
2019-01-12T01:14:28.031Z,88.40
2019-01-12T01:15:28.041Z,88.71
2019-01-12T01:16:28.019Z,88.40
2019-01-12T01:17:28.000Z,88.30
2019-01-12T01:18:28.004Z,88.20
2019-01-12T01:19:27.989Z,88.82
2019-01-12T01:20:27.969Z,88.40
2019-01-12T01:21:27.959Z,89.13
2019-01-12T01:22:27.989Z,89.17
2019-01-12T01:23:27.956Z,89.13
2019-01-12T01:24:27.923Z,89.03
2019-01-12T01:25:27.918Z,88.92
2019-01-12T01:26:27.908Z,89.23
2019-01-12T01:27:27.892Z,89.34
2019-01-12T01:28:27.902Z,88.92
2019-01-12T01:29:27.881Z,88.71
2019-01-12T01:30:27.862Z,88.20
2019-01-12T01:31:27.852Z,88.20
2019-01-12T01:32:27.846Z,88.51
2019-01-12T01:33:28.244Z,88.30
2019-01-12T01:34:27.835Z,88.40
2019-01-12T01:35:27.813Z,88.76
2019-01-12T01:36:27.801Z,88.76
2019-01-12T01:37:27.791Z,88.71
2019-01-12T01:38:27.784Z,89.03
2019-01-12T01:39:27.772Z,88.82
2019-01-12T01:40:27.788Z,89.48
2019-01-12T01:41:27.750Z,89.34
2019-01-12T01:42:27.731Z,88.51
2019-01-12T01:43:27.752Z,88.51
2019-01-12T01:44:27.753Z,88.45
2019-01-12T01:45:27.708Z,87.88
2019-01-12T01:46:27.693Z,88.09
2019-01-12T01:47:27.689Z,88.09
2019-01-12T01:48:27.675Z,88.03
2019-01-12T01:49:27.658Z,88.30
2019-01-12T01:50:27.683Z,87.93
2019-01-12T01:51:27.646Z,87.10
2019-01-12T01:52:27.653Z,87.93
2019-01-12T01:53:27.611Z,88.24
2019-01-12T01:54:27.602Z,87.41
2019-01-12T01:55:27.597Z,87.41
2019-01-12T01:56:27.634Z,87.41
2019-01-12T01:57:27.567Z,87.20
2019-01-12T01:58:27.575Z,86.47
2019-01-12T01:59:27.561Z,86.37
2019-01-12T02:00:27.542Z,86.37
2019-01-12T02:01:27.530Z,86.37
2019-01-12T02:02:27.531Z,85.96
2019-01-12T02:03:27.524Z,85.55
2019-01-12T02:04:27.490Z,85.75
2019-01-12T02:05:27.488Z,86.07
2019-01-12T02:06:27.477Z,86.58
2019-01-12T02:07:27.472Z,86.37
2019-01-12T02:08:27.456Z,86.47
2019-01-12T02:09:27.465Z,86.07
2019-01-12T02:10:27.474Z,86.37
2019-01-12T02:11:27.415Z,86.37
2019-01-12T02:12:27.411Z,86.37
2019-01-12T02:13:27.410Z,86.58
2019-01-12T02:14:27.397Z,86.58
2019-01-12T02:15:27.387Z,86.79
2019-01-12T02:16:27.375Z,86.99
2019-01-12T02:17:27.363Z,87.10
2019-01-12T02:18:27.342Z,86.79
2019-01-12T02:19:27.339Z,87.41
2019-01-12T02:20:27.345Z,87.41
2019-01-12T02:21:27.314Z,86.89
2019-01-12T02:22:27.301Z,87.30
2019-01-12T02:23:27.296Z,87.35
2019-01-12T02:24:27.289Z,87.30
2019-01-12T02:25:27.316Z,88.03
2019-01-12T02:26:27.255Z,88.18
2019-01-12T02:27:27.249Z,87.93
2019-01-12T02:28:27.250Z,87.45
2019-01-12T02:29:27.233Z,88.28
2019-01-12T02:30:27.213Z,88.28
2019-01-12T02:31:27.236Z,87.87
2019-01-12T02:32:27.258Z,88.18
2019-01-12T02:33:27.179Z,88.18
2019-01-12T02:34:27.180Z,88.18
2019-01-12T02:35:27.164Z,88.07
2019-01-12T02:36:27.195Z,88.18
2019-01-12T02:37:27.137Z,87.55
2019-01-12T02:38:27.127Z,88.07
2019-01-12T02:39:27.128Z,88.07
2019-01-12T02:40:27.115Z,88.07
2019-01-12T02:41:27.120Z,88.07
2019-01-12T02:42:27.093Z,87.97
2019-01-12T02:43:27.096Z,87.66
2019-01-12T02:44:27.059Z,87.45
2019-01-12T02:45:27.062Z,87.45
2019-01-12T02:46:27.097Z,87.55
2019-01-12T02:47:27.038Z,87.45
2019-01-12T02:48:27.021Z,87.24
2019-01-12T02:49:27.018Z,87.04
2019-01-12T02:50:26.995Z,86.72
2019-01-12T02:51:26.986Z,86.72
2019-01-12T02:52:27.053Z,86.52
2019-01-12T02:53:26.987Z,86.10
2019-01-12T02:54:26.971Z,85.89
2019-01-12T02:55:26.955Z,86.31
2019-01-12T02:56:26.964Z,86.31
2019-01-12T02:57:26.930Z,86.00
2019-01-12T02:58:26.937Z,86.27
2019-01-12T02:59:26.908Z,86.31
2019-01-12T03:00:26.923Z,86.00
2019-01-12T03:01:26.915Z,86.07
2019-01-12T03:02:26.870Z,85.79
2019-01-12T03:03:26.862Z,86.31
2019-01-12T03:04:26.853Z,85.69
2019-01-12T03:05:26.850Z,85.79
2019-01-12T03:06:26.834Z,85.89
2019-01-12T03:07:26.821Z,86.21
2019-01-12T03:08:26.825Z,86.41
2019-01-12T03:09:26.800Z,86.10
2019-01-12T03:10:26.801Z,86.41
2019-01-12T03:11:26.779Z,86.62
2019-01-12T03:12:26.770Z,86.41
2019-01-12T03:13:26.757Z,86.62
2019-01-12T03:14:26.786Z,86.62
2019-01-12T03:15:26.770Z,86.62
2019-01-12T03:16:26.721Z,86.62
2019-01-12T03:17:26.718Z,87.14
2019-01-12T03:18:26.714Z,86.41
2019-01-12T03:19:26.695Z,86.83
2019-01-12T03:20:26.721Z,87.04
2019-01-12T03:21:26.672Z,87.45
2019-01-12T03:22:26.684Z,87.45
2019-01-12T03:23:26.657Z,87.45
2019-01-12T03:24:26.648Z,88.18
2019-01-12T03:25:26.635Z,87.55
2019-01-12T03:26:26.631Z,87.97
2019-01-12T03:27:26.598Z,87.97
2019-01-12T03:28:26.595Z,88.18
2019-01-12T03:29:26.584Z,88.28
2019-01-12T03:30:26.634Z,88.07
2019-01-12T03:31:26.601Z,88.28
2019-01-12T03:32:26.560Z,88.48
2019-01-12T03:33:26.547Z,88.79
2019-01-12T03:34:26.535Z,88.28
2019-01-12T03:35:26.531Z,88.48
2019-01-12T03:36:26.518Z,88.79
2019-01-12T03:37:26.521Z,89.11
2019-01-12T03:38:27.133Z,88.90
2019-01-12T03:39:26.487Z,89.00
2019-01-12T03:40:26.476Z,89.00
2019-01-12T03:41:26.464Z,89.21
2019-01-12T03:42:26.489Z,89.11
2019-01-12T03:43:26.438Z,89.21
2019-01-12T03:44:26.427Z,88.90
2019-01-12T03:45:26.412Z,89.00
2019-01-12T03:46:26.398Z,88.39
2019-01-12T03:47:26.413Z,89.21
2019-01-12T03:48:26.392Z,89.00
2019-01-12T03:49:26.369Z,88.69
2019-01-12T03:50:26.359Z,88.69
2019-01-12T03:51:26.353Z,88.28
2019-01-12T03:52:26.353Z,88.79
2019-01-12T03:53:26.334Z,89.21
2019-01-12T03:54:26.322Z,89.00
2019-01-12T03:55:26.301Z,89.00
2019-01-12T03:56:26.286Z,89.00
2019-01-12T03:57:26.296Z,89.00
2019-01-12T03:58:26.317Z,88.90
2019-01-12T03:59:26.268Z,89.21
2019-01-12T04:00:26.248Z,89.31
2019-01-12T04:01:26.243Z,89.73
2019-01-12T04:02:26.242Z,89.83
2019-01-12T04:03:26.285Z,89.21
2019-01-12T04:04:26.221Z,89.00
2019-01-12T04:05:26.214Z,89.94
2019-01-12T04:06:26.183Z,89.73
2019-01-12T04:07:26.168Z,89.73
2019-01-12T04:08:26.158Z,89.21
2019-01-12T04:09:33.757Z,89.00
2019-01-12T04:10:26.169Z,89.31
2019-01-12T04:11:26.132Z,89.21
2019-01-12T04:12:26.114Z,88.90
2019-01-12T04:13:26.109Z,89.31
2019-01-12T04:14:26.098Z,89.31
2019-01-12T04:15:26.087Z,89.31
2019-01-12T04:16:26.081Z,89.00
2019-01-12T04:17:26.065Z,89.31
2019-01-12T04:18:26.050Z,89.42
2019-01-12T04:19:26.041Z,89.42
2019-01-12T04:20:26.032Z,89.11
2019-01-12T04:21:26.030Z,89.21
2019-01-12T04:22:26.007Z,89.11
2019-01-12T04:23:26.001Z,88.69
2019-01-12T04:24:25.990Z,89.21
2019-01-12T04:25:33.285Z,88.90
2019-01-12T04:26:26.989Z,89.31
2019-01-12T04:27:25.958Z,88.69
2019-01-12T04:28:25.947Z,89.31
2019-01-12T04:29:25.937Z,89.42
2019-01-12T04:30:25.920Z,89.11
2019-01-12T04:31:25.909Z,89.62
2019-01-12T04:32:25.916Z,89.52
2019-01-12T04:33:25.897Z,88.90
2019-01-12T04:34:25.884Z,89.73
2019-01-12T04:35:25.867Z,89.11
2019-01-12T04:36:25.856Z,89.11
2019-01-12T04:37:25.854Z,89.42
2019-01-12T04:38:25.841Z,89.73
2019-01-12T04:39:25.837Z,89.52
2019-01-12T04:40:25.815Z,89.42
2019-01-12T04:41:25.808Z,89.21
2019-01-12T04:42:25.820Z,89.21
2019-01-12T04:43:25.787Z,89.11
2019-01-12T04:44:25.785Z,88.90
2019-01-12T04:45:25.759Z,89.00
2019-01-12T04:46:25.748Z,89.42
2019-01-12T04:47:25.737Z,89.21
2019-01-12T04:48:25.737Z,88.79
2019-01-12T04:49:25.725Z,89.21
2019-01-12T04:50:25.712Z,89.21
2019-01-12T04:51:25.700Z,88.79
2019-01-12T04:52:25.686Z,89.21
2019-01-12T04:53:25.684Z,88.90
2019-01-12T04:54:25.699Z,88.79
2019-01-12T04:55:25.653Z,88.28
2019-01-12T04:56:25.647Z,89.21
2019-01-12T04:57:25.637Z,88.59
2019-01-12T04:58:25.625Z,88.48
2019-01-12T04:59:25.613Z,88.69
2019-01-12T05:00:25.623Z,89.00
2019-01-12T05:01:25.589Z,88.45
2019-01-12T05:02:25.584Z,88.03
2019-01-12T05:03:25.593Z,88.18
2019-01-12T05:04:25.561Z,88.28
2019-01-12T05:05:25.551Z,87.97
2019-01-12T05:06:25.548Z,88.39
2019-01-12T05:07:25.524Z,88.07
2019-01-12T05:08:25.512Z,88.18
2019-01-12T05:09:25.537Z,87.35
2019-01-12T05:10:25.511Z,87.45
2019-01-12T05:11:25.497Z,88.07
2019-01-12T05:12:25.476Z,87.87
2019-01-12T05:13:25.460Z,87.14
2019-01-12T05:14:25.472Z,88.18
2019-01-12T05:15:25.443Z,86.83
2019-01-12T05:16:25.460Z,87.35
2019-01-12T05:17:25.425Z,87.10
2019-01-12T05:18:25.412Z,87.04
2019-01-12T05:19:25.401Z,86.83
2019-01-12T05:20:25.385Z,87.30
2019-01-12T05:21:25.382Z,86.89
2019-01-12T05:22:25.406Z,87.24
2019-01-12T05:23:25.357Z,87.35
2019-01-12T05:24:25.347Z,87.35
2019-01-12T05:25:25.331Z,87.14
2019-01-12T05:26:25.327Z,87.55
2019-01-12T05:27:25.310Z,87.35
2019-01-12T05:28:25.306Z,86.93
2019-01-12T05:29:25.296Z,87.14
2019-01-12T05:30:25.282Z,87.24
2019-01-12T05:31:25.272Z,86.93
2019-01-12T05:32:25.258Z,87.04
2019-01-12T05:33:25.260Z,86.99
2019-01-12T05:34:25.262Z,86.79
2019-01-12T05:35:25.223Z,86.83
2019-01-12T05:36:25.218Z,86.52
2019-01-12T05:37:25.202Z,86.41
2019-01-12T05:38:25.195Z,86.62
2019-01-12T05:39:25.236Z,86.62
2019-01-12T05:40:25.176Z,86.68
2019-01-12T05:41:25.166Z,86.62
2019-01-12T05:42:25.153Z,86.41
2019-01-12T05:43:25.143Z,86.52
2019-01-12T05:44:25.133Z,86.47
2019-01-12T05:45:25.125Z,86.41
2019-01-12T05:46:25.110Z,86.41
2019-01-12T05:47:25.096Z,86.93
2019-01-12T05:48:25.085Z,86.37
2019-01-12T05:49:25.075Z,86.47
2019-01-12T05:50:25.071Z,86.07
2019-01-12T05:51:25.063Z,86.07
2019-01-12T05:52:25.042Z,86.07
2019-01-12T05:53:25.030Z,86.37
2019-01-12T05:54:25.041Z,86.52
2019-01-12T05:55:25.013Z,85.79
2019-01-12T05:56:25.009Z,86.31
2019-01-12T05:57:24.992Z,86.37
2019-01-12T05:58:24.976Z,86.27
2019-01-12T05:59:24.973Z,85.86
2019-01-12T06:00:24.957Z,85.75
2019-01-12T06:01:24.975Z,85.65
2019-01-12T06:02:24.933Z,85.79
2019-01-12T06:03:24.923Z,85.75
2019-01-12T06:04:24.918Z,85.96
2019-01-12T06:05:24.900Z,85.75
2019-01-12T06:06:24.896Z,86.37
2019-01-12T06:07:24.895Z,85.96
2019-01-12T06:08:24.869Z,85.55
2019-01-12T06:09:24.857Z,84.20
2019-01-12T06:10:24.847Z,85.44
2019-01-12T06:11:24.847Z,84.20
2019-01-12T06:12:24.875Z,84.88
2019-01-12T06:13:24.818Z,84.99
2019-01-12T06:14:24.811Z,84.06
2019-01-12T06:15:24.796Z,83.85
2019-01-12T06:16:24.790Z,83.85
2019-01-12T06:17:24.776Z,83.75
2019-01-12T06:18:24.779Z,84.06
2019-01-12T06:19:24.755Z,83.75
2019-01-12T06:20:24.741Z,84.30
2019-01-12T06:21:24.731Z,84.16
2019-01-12T06:22:24.718Z,84.16
2019-01-12T06:23:24.708Z,83.37
2019-01-12T06:24:24.723Z,84.09
2019-01-12T06:25:24.692Z,84.30
2019-01-12T06:26:24.675Z,84.30
2019-01-12T06:27:24.670Z,84.30
2019-01-12T06:28:24.659Z,84.30
2019-01-12T06:29:24.650Z,83.68
2019-01-12T06:30:24.643Z,83.99
2019-01-12T06:31:24.627Z,84.41
2019-01-12T06:32:24.616Z,84.30
2019-01-12T06:33:24.602Z,84.51
2019-01-12T06:34:24.595Z,83.58
2019-01-12T06:35:24.593Z,83.68
2019-01-12T06:36:24.582Z,83.68
2019-01-12T06:37:24.558Z,83.47
2019-01-12T06:38:24.554Z,83.47
2019-01-12T06:39:24.548Z,83.99
2019-01-12T06:40:24.531Z,83.99
2019-01-12T06:41:24.519Z,83.89
2019-01-12T06:42:24.517Z,84.41
2019-01-12T06:43:24.499Z,84.20
2019-01-12T06:44:24.484Z,85.13
2019-01-12T06:45:24.475Z,84.61
2019-01-12T06:46:24.462Z,84.27
2019-01-12T06:47:24.488Z,84.51
2019-01-12T06:48:24.441Z,83.99
2019-01-12T06:49:24.430Z,82.86
2019-01-12T06:50:24.422Z,84.16
2019-01-12T06:51:24.408Z,83.54
2019-01-12T06:52:24.402Z,83.54
2019-01-12T06:53:24.399Z,83.12
2019-01-12T06:54:24.380Z,82.50
2019-01-12T06:55:24.366Z,82.65
2019-01-12T06:56:24.357Z,82.40
2019-01-12T06:57:24.351Z,82.54
2019-01-12T06:58:24.340Z,82.60
2019-01-12T06:59:24.329Z,82.29
2019-01-12T07:00:24.317Z,82.23
2019-01-12T07:01:24.310Z,82.92
2019-01-12T07:02:24.296Z,83.02
2019-01-12T07:03:24.323Z,83.16
2019-01-12T07:04:24.269Z,82.71
2019-01-12T07:05:24.260Z,83.12
2019-01-12T07:06:24.253Z,83.02
2019-01-12T07:07:24.238Z,83.37
2019-01-12T07:08:24.232Z,83.37
2019-01-12T07:09:24.228Z,82.86
2019-01-12T07:10:24.212Z,83.16
2019-01-12T07:11:24.201Z,83.16
2019-01-12T07:12:24.189Z,83.23
2019-01-12T07:13:24.174Z,83.68
2019-01-12T07:14:24.212Z,83.47
2019-01-12T07:15:24.159Z,83.37
2019-01-12T07:16:24.142Z,83.02
2019-01-12T07:17:24.135Z,82.95
2019-01-12T07:18:24.121Z,83.23
2019-01-12T07:19:24.110Z,82.86
2019-01-12T07:20:24.110Z,83.16
2019-01-12T07:21:24.090Z,83.99
2019-01-12T07:22:24.080Z,83.68
2019-01-12T07:23:24.073Z,83.64
2019-01-12T07:24:24.057Z,83.58
2019-01-12T07:25:24.053Z,83.37
2019-01-12T07:26:24.053Z,83.78
2019-01-12T07:27:24.030Z,83.68
2019-01-12T07:28:24.018Z,83.75
2019-01-12T07:29:24.009Z,84.27
2019-01-12T07:30:23.992Z,83.64
2019-01-12T07:31:23.992Z,83.99
2019-01-12T07:32:23.973Z,84.30
2019-01-12T07:33:23.967Z,83.78
2019-01-12T07:34:23.952Z,83.54
2019-01-12T07:35:23.953Z,83.54
2019-01-12T07:36:23.944Z,84.16
2019-01-12T07:37:23.927Z,84.16
2019-01-12T07:38:23.909Z,83.64
2019-01-12T07:39:23.903Z,83.64
2019-01-12T07:40:23.893Z,84.30
2019-01-12T07:41:23.909Z,83.54
2019-01-12T07:42:23.873Z,83.99
2019-01-12T07:43:23.861Z,84.88
2019-01-12T07:44:23.844Z,85.34
2019-01-12T07:45:23.839Z,85.71
2019-01-12T07:46:23.828Z,86.02
2019-01-12T07:47:23.821Z,86.44
2019-01-12T07:48:23.807Z,86.44
2019-01-12T07:49:23.797Z,86.58
2019-01-12T07:50:23.781Z,86.44
2019-01-12T07:51:23.776Z,86.75
2019-01-12T07:52:23.760Z,86.65
2019-01-12T07:53:23.785Z,86.75
2019-01-12T07:54:23.750Z,87.27
2019-01-12T07:55:23.727Z,87.88
2019-01-12T07:56:24.575Z,87.88
2019-01-12T07:57:23.711Z,88.51
2019-01-12T07:58:23.695Z,90.16
2019-01-12T07:59:23.707Z,90.37
2019-01-12T08:00:23.679Z,88.61
2019-01-12T08:01:23.670Z,88.96
2019-01-12T08:02:23.659Z,89.65
2019-01-12T08:03:23.648Z,89.65
2019-01-12T08:04:23.637Z,89.75
2019-01-12T08:05:23.635Z,89.54
2019-01-12T08:06:23.615Z,89.54
2019-01-12T08:07:23.605Z,89.86
2019-01-12T08:08:23.589Z,89.54
2019-01-12T08:09:23.584Z,89.69
2019-01-12T08:10:23.577Z,89.75
2019-01-12T08:11:23.556Z,89.96
2019-01-12T08:12:23.546Z,89.75
2019-01-12T08:13:23.536Z,89.75
2019-01-12T08:14:23.568Z,89.75
2019-01-12T08:15:23.519Z,89.79
2019-01-12T08:16:23.512Z,89.75
2019-01-12T08:17:23.498Z,89.86
2019-01-12T08:18:23.488Z,89.96
2019-01-12T08:19:23.477Z,89.79
2019-01-12T08:20:23.470Z,90.06
2019-01-12T08:21:23.450Z,90.06
2019-01-12T08:22:23.445Z,90.06
2019-01-12T08:23:23.437Z,89.86
2019-01-12T08:24:23.425Z,90.68
2019-01-12T08:25:23.417Z,90.16
2019-01-12T08:26:23.404Z,90.16
2019-01-12T08:27:23.394Z,89.65
2019-01-12T08:28:23.376Z,89.96
2019-01-12T08:29:23.371Z,89.54
2019-01-12T08:30:23.364Z,89.86
2019-01-12T08:31:23.350Z,89.75
2019-01-12T08:32:23.376Z,89.96
2019-01-12T08:33:23.322Z,89.23
2019-01-12T08:34:23.312Z,89.65
2019-01-12T08:35:23.302Z,89.75
2019-01-12T08:36:23.302Z,90.16
2019-01-12T08:37:23.280Z,90.06
2019-01-12T08:38:23.278Z,90.06
2019-01-12T08:39:23.266Z,89.96
2019-01-12T08:40:23.254Z,90.37
2019-01-12T08:41:23.245Z,90.26
2019-01-12T08:42:23.226Z,90.06
2019-01-12T08:43:23.216Z,89.34
2019-01-12T08:44:23.221Z,90.68
2019-01-12T08:45:23.197Z,91.09
2019-01-12T08:46:23.190Z,90.16
2019-01-12T08:47:23.179Z,90.33
2019-01-12T08:48:23.164Z,90.02
2019-01-12T08:49:23.198Z,90.64
2019-01-12T08:50:23.149Z,91.67
2019-01-12T08:51:23.150Z,91.67
2019-01-12T08:52:23.131Z,91.47
2019-01-12T08:53:23.114Z,91.36
2019-01-12T08:54:23.111Z,91.20
2019-01-12T08:55:24.651Z,91.88
2019-01-12T08:56:23.094Z,91.78
2019-01-12T08:57:23.067Z,92.19
2019-01-12T08:58:23.061Z,93.16
2019-01-12T08:59:23.052Z,92.13
2019-01-12T09:00:23.035Z,92.76
2019-01-12T09:01:23.048Z,92.96
2019-01-12T09:02:23.017Z,93.16
2019-01-12T09:03:23.041Z,93.48
2019-01-12T09:04:22.996Z,94.41
2019-01-12T09:05:22.987Z,94.41
2019-01-12T09:06:22.976Z,94.20
2019-01-12T09:07:22.964Z,94.41
2019-01-12T09:08:22.949Z,94.93
2019-01-12T09:09:22.947Z,95.34
2019-01-12T09:10:22.927Z,96.06
2019-01-12T09:11:22.941Z,96.06
2019-01-12T09:12:22.906Z,95.96
2019-01-12T09:13:22.903Z,96.58
2019-01-12T09:14:22.890Z,96.94
2019-01-12T09:15:22.882Z,97.10
2019-01-12T09:16:22.868Z,97.14
2019-01-12T09:17:22.867Z,96.79
2019-01-12T09:18:22.856Z,96.89
2019-01-12T09:19:22.831Z,96.83
2019-01-12T09:20:22.839Z,97.10
2019-01-12T09:21:22.810Z,97.10
2019-01-12T09:22:22.802Z,97.20
2019-01-12T09:23:22.823Z,97.10
2019-01-12T09:24:22.783Z,96.69
2019-01-12T09:25:22.767Z,97.41
2019-01-12T09:26:22.760Z,97.41
2019-01-12T09:27:22.745Z,98.13
2019-01-12T09:28:22.734Z,98.24
2019-01-12T09:29:22.733Z,97.93
2019-01-12T09:30:22.712Z,98.24
2019-01-12T09:31:22.715Z,98.55
2019-01-12T09:32:22.700Z,98.44
2019-01-12T09:33:22.686Z,98.34
2019-01-12T09:34:22.700Z,98.34
2019-01-12T09:35:22.666Z,98.44
2019-01-12T09:36:22.655Z,98.92
2019-01-12T09:37:22.644Z,98.50
2019-01-12T09:38:22.630Z,98.65
2019-01-12T09:39:22.617Z,98.61
2019-01-12T09:40:22.616Z,98.61
2019-01-12T09:41:22.601Z,98.71
2019-01-12T09:42:22.589Z,98.50
2019-01-12T09:43:22.576Z,98.61
2019-01-12T09:44:22.570Z,98.50
2019-01-12T09:45:22.563Z,98.92
2019-01-12T09:46:22.548Z,98.40
2019-01-12T09:47:22.536Z,98.30
2019-01-12T09:48:22.522Z,98.19
2019-01-12T09:49:22.517Z,98.05
2019-01-12T09:50:22.524Z,98.09
2019-01-12T09:51:22.491Z,98.40
2019-01-12T09:52:22.479Z,98.35
2019-01-12T09:53:22.476Z,98.25
2019-01-12T09:54:22.532Z,97.94
2019-01-12T09:55:22.446Z,97.74
2019-01-12T09:56:22.450Z,97.42
2019-01-12T09:57:22.423Z,97.63
2019-01-12T09:58:22.421Z,97.01
2019-01-12T09:59:22.404Z,97.38
2019-01-12T10:00:22.405Z,97.38
2019-01-12T10:01:22.380Z,97.32
2019-01-12T10:02:22.373Z,97.28
2019-01-12T10:03:22.367Z,97.07
2019-01-12T10:04:22.348Z,96.97
2019-01-12T10:05:22.345Z,96.76
2019-01-12T10:06:22.365Z,96.76
2019-01-12T10:07:22.322Z,96.66
2019-01-12T10:08:22.311Z,96.20
2019-01-12T10:09:30.301Z,96.41
2019-01-12T10:10:22.286Z,95.89
2019-01-12T10:11:22.298Z,95.78
2019-01-12T10:12:22.289Z,96.09
2019-01-12T10:13:22.251Z,95.89
2019-01-12T10:14:22.240Z,95.43
2019-01-12T10:15:22.233Z,94.96
2019-01-12T10:16:22.221Z,94.19
2019-01-12T10:17:22.211Z,94.60
2019-01-12T10:18:22.216Z,93.93
2019-01-12T10:19:22.185Z,94.19
2019-01-12T10:20:22.176Z,93.98
2019-01-12T10:21:22.166Z,94.34
2019-01-12T10:22:28.435Z,94.19
2019-01-12T10:23:23.171Z,94.50
2019-01-12T10:24:22.145Z,94.40
2019-01-12T10:25:22.126Z,94.29
2019-01-12T10:26:22.123Z,94.29
2019-01-12T10:27:22.102Z,93.88
2019-01-12T10:28:22.102Z,94.34
2019-01-12T10:29:22.078Z,94.19
2019-01-12T10:30:22.073Z,94.29
2019-01-12T10:31:22.059Z,94.92
2019-01-12T10:32:22.051Z,94.92
2019-01-12T10:33:22.060Z,94.54
2019-01-12T10:34:22.022Z,95.17
2019-01-12T10:35:22.018Z,95.06
2019-01-12T10:36:22.012Z,95.17
2019-01-12T10:37:22.004Z,96.09
2019-01-12T10:38:21.984Z,95.78
2019-01-12T10:39:21.981Z,96.05
2019-01-12T10:40:21.958Z,96.15
2019-01-12T10:41:21.953Z,96.30
2019-01-12T10:42:21.941Z,96.30
2019-01-12T10:43:21.927Z,96.67
2019-01-12T10:44:21.928Z,96.92
2019-01-12T10:45:21.907Z,97.13
2019-01-12T10:46:21.898Z,97.02
2019-01-12T10:47:21.881Z,96.82
2019-01-12T10:48:21.877Z,96.72
2019-01-12T10:49:21.866Z,97.59
2019-01-12T10:50:21.856Z,97.23
2019-01-12T10:51:21.842Z,97.02
2019-01-12T10:52:21.827Z,96.51
2019-01-12T10:53:21.822Z,96.82
2019-01-12T10:54:21.810Z,97.02
2019-01-12T10:55:21.854Z,96.82
2019-01-12T10:56:21.785Z,96.61
2019-01-12T10:57:21.778Z,95.78
2019-01-12T10:58:21.768Z,95.02
2019-01-12T10:59:21.755Z,94.34
2019-01-12T11:00:21.745Z,94.54
2019-01-12T11:01:21.740Z,94.85
2019-01-12T11:02:21.725Z,94.92
2019-01-12T11:03:21.712Z,94.23
2019-01-12T11:04:21.695Z,94.23
2019-01-12T11:05:21.686Z,94.50
2019-01-12T11:06:21.688Z,93.98
2019-01-12T11:07:21.673Z,94.19
2019-01-12T11:08:21.657Z,94.29
2019-01-12T11:09:21.655Z,94.19
2019-01-12T11:10:21.643Z,94.19
2019-01-12T11:11:21.662Z,93.78
2019-01-12T11:12:21.615Z,93.98
2019-01-12T11:13:21.604Z,94.19
2019-01-12T11:14:21.589Z,94.09
2019-01-12T11:15:21.583Z,93.98
2019-01-12T11:16:21.568Z,93.68
2019-01-12T11:17:21.593Z,92.85
2019-01-12T11:18:21.558Z,92.95
2019-01-12T11:19:21.534Z,92.44
2019-01-12T11:20:21.530Z,92.23
2019-01-12T11:21:21.512Z,92.74
2019-01-12T11:22:21.509Z,92.58
2019-01-12T11:23:21.505Z,92.74
2019-01-12T11:24:21.484Z,93.16
2019-01-12T11:25:21.475Z,92.99
2019-01-12T11:26:21.464Z,93.30
2019-01-12T11:27:21.449Z,93.16
2019-01-12T11:28:21.458Z,92.95
2019-01-12T11:29:21.435Z,92.64
2019-01-12T11:30:21.421Z,92.79
2019-01-12T11:31:21.404Z,93.16
2019-01-12T11:32:21.393Z,92.85
2019-01-12T11:33:21.416Z,92.74
2019-01-12T11:34:21.374Z,92.54
2019-01-12T11:35:21.366Z,91.82
2019-01-12T11:36:21.355Z,92.54
2019-01-12T11:37:21.339Z,92.54
2019-01-12T11:38:21.328Z,92.23
2019-01-12T11:39:21.334Z,92.95
2019-01-12T11:40:21.313Z,91.92
2019-01-12T11:41:21.308Z,92.54
2019-01-12T11:42:21.293Z,92.54
2019-01-12T11:43:21.281Z,92.85
2019-01-12T11:44:21.291Z,92.95
2019-01-12T11:45:21.260Z,92.44
2019-01-12T11:46:21.241Z,91.71
2019-01-12T11:47:21.237Z,92.95
2019-01-12T11:48:21.221Z,92.44
2019-01-12T11:49:21.225Z,92.33
2019-01-12T11:50:21.207Z,92.54
2019-01-12T11:51:21.191Z,92.64
2019-01-12T11:52:21.183Z,92.64
2019-01-12T11:53:21.170Z,92.54
2019-01-12T11:54:21.194Z,92.23
2019-01-12T11:55:21.146Z,92.64
2019-01-12T11:56:21.143Z,92.64
2019-01-12T11:57:21.127Z,92.95
2019-01-12T11:58:21.119Z,93.05
2019-01-12T11:59:21.105Z,92.89
2019-01-12T12:00:21.105Z,93.10
2019-01-12T12:01:21.081Z,92.89
2019-01-12T12:02:21.069Z,92.99
2019-01-12T12:03:21.059Z,93.10
2019-01-12T12:04:21.052Z,94.44
2019-01-12T12:05:21.051Z,94.23
2019-01-12T12:06:21.065Z,93.82
2019-01-12T12:07:21.036Z,93.98
2019-01-12T12:08:21.011Z,94.29
2019-01-12T12:09:20.994Z,93.05
2019-01-12T12:10:20.991Z,92.85
2019-01-12T12:11:20.978Z,92.74
2019-01-12T12:12:20.971Z,93.05
2019-01-12T12:13:20.951Z,92.44
2019-01-12T12:14:20.944Z,92.64
2019-01-12T12:15:20.943Z,92.54
2019-01-12T12:16:20.926Z,92.85
2019-01-12T12:17:20.910Z,92.64
2019-01-12T12:18:20.898Z,92.54
2019-01-12T12:19:20.885Z,92.33
2019-01-12T12:20:20.890Z,92.13
2019-01-12T12:21:20.878Z,92.44
2019-01-12T12:22:20.861Z,92.02
2019-01-12T12:23:20.847Z,92.95
2019-01-12T12:24:20.841Z,92.85
2019-01-12T12:25:20.822Z,92.23
2019-01-12T12:26:20.824Z,92.13
2019-01-12T12:27:25.952Z,91.92
2019-01-12T12:28:21.792Z,91.50
2019-01-12T12:29:20.777Z,90.99
2019-01-12T12:30:20.833Z,90.99
2019-01-12T12:31:20.766Z,90.89
2019-01-12T12:32:20.828Z,90.58
2019-01-12T12:33:20.749Z,90.83
2019-01-12T12:34:20.723Z,90.58
2019-01-12T12:35:20.712Z,90.47
2019-01-12T12:36:20.715Z,90.58
2019-01-12T12:37:20.725Z,90.89
2019-01-12T12:38:20.687Z,90.99
2019-01-12T12:39:20.668Z,90.99
2019-01-12T12:40:20.662Z,90.06
2019-01-12T12:41:20.647Z,90.22
2019-01-12T12:42:20.637Z,89.40
2019-01-12T12:43:20.645Z,89.50
2019-01-12T12:44:20.626Z,88.84
2019-01-12T12:45:20.605Z,88.37
2019-01-12T12:46:20.600Z,88.78
2019-01-12T12:47:20.588Z,88.68
2019-01-12T12:48:20.607Z,88.47
2019-01-12T12:49:20.571Z,88.68
2019-01-12T12:50:20.556Z,88.89
2019-01-12T12:51:20.543Z,88.89
2019-01-12T12:52:20.529Z,88.26